Time;durP1;ratioP1;P1;durP2;ratioP2;P2;SDS_P1;SDS_P2;PMS_P1;PMS_P2;Temp;Humidity;BMP_temperature;BMP_pressure;BME280_temperature;BME280_humidity;BME280_pressure;Samples;Min_cycle;Max_cycle;Signal;HPM_P1;HPM_P2
2022/11/23 00:01:35;;;;;;;0.10;0.10;;;4.70;99.90;2.90;94403.00;;;;5032812;28;20662;-74
2022/11/23 00:04:06;;;;;;;0.10;0.10;;;4.60;99.90;2.90;94502.00;;;;5032932;28;20211;-74
2022/11/23 00:06:36;;;;;;;0.10;0.10;;;4.60;99.90;3.00;94529.00;;;;5048567;28;20199;-74
2022/11/23 00:09:05;;;;;;;0.10;0.10;;;4.70;99.90;2.90;94539.00;;;;5034169;28;20747;-74
2022/11/23 00:11:36;;;;;;;0.10;0.10;;;4.60;99.90;3.00;94527.00;;;;5039384;28;20604;-74
2022/11/23 00:14:04;;;;;;;0.10;0.10;;;4.70;99.90;2.90;94587.00;;;;5053522;28;20763;-74
2022/11/23 00:16:33;;;;;;;0.10;0.10;;;4.60;99.90;2.90;94587.00;;;;5033395;28;20555;-74
2022/11/23 00:19:02;;;;;;;0.10;0.10;;;4.60;99.90;2.90;94442.00;;;;5032699;28;20628;-74
2022/11/23 00:21:32;;;;;;;0.00;0.00;;;4.70;99.90;3.00;94454.00;;;;5037807;28;20602;-74
2022/11/23 00:24:01;;;;;;;0.10;0.10;;;4.70;99.90;2.90;94487.00;;;;5040939;28;20268;-74
2022/11/23 00:26:29;;;;;;;0.10;0.10;;;4.60;99.90;2.90;94410.00;;;;5033998;28;20191;-74
2022/11/23 00:28:58;;;;;;;0.00;0.00;;;4.60;99.90;2.90;94335.00;;;;5032253;28;20269;-74
2022/11/23 00:31:27;;;;;;;0.10;0.10;;;4.60;99.90;2.90;94329.00;;;;5032414;28;20194;-74
2022/11/23 00:33:57;;;;;;;0.10;0.10;;;4.60;99.90;2.90;94311.00;;;;5032252;28;20219;-74
2022/11/23 00:36:27;;;;;;;0.00;0.00;;;4.60;99.90;2.90;94273.00;;;;5032401;28;20187;-74
2022/11/23 00:38:56;;;;;;;0.10;0.10;;;4.60;99.90;2.90;94071.00;;;;5032579;28;20202;-74
2022/11/23 00:41:27;;;;;;;0.10;0.10;;;4.60;99.90;2.80;94046.00;;;;5047779;28;20261;-74
2022/11/23 00:43:56;;;;;;;0.10;0.10;;;4.60;99.90;2.90;94177.00;;;;5036127;28;20206;-75
2022/11/23 00:46:27;;;;;;;0.10;0.10;;;4.60;99.90;2.80;94311.00;;;;5049867;28;20399;-74
2022/11/23 00:48:57;;;;;;;0.10;0.10;;;4.60;99.90;2.80;94332.00;;;;5030895;28;20203;-74
2022/11/23 00:51:29;;;;;;;0.10;0.10;;;4.60;99.90;2.80;94315.00;;;;5032321;28;20190;-74
2022/11/23 00:53:59;;;;;;;0.10;0.10;;;4.60;99.90;2.80;94307.00;;;;5047322;28;20230;-74
2022/11/23 00:56:27;;;;;;;0.10;0.10;;;4.50;99.90;2.80;94331.00;;;;5047352;28;20226;-74
2022/11/23 00:58:58;;;;;;;0.10;0.10;;;4.50;99.90;2.80;94380.00;;;;5047070;28;20199;-74
2022/11/23 01:01:32;;;;;;;0.08;0.08;;;4.50;99.90;2.80;94428.00;;;;5047265;28;20194;-74
2022/11/23 01:04:03;;;;;;;0.10;0.10;;;4.60;99.90;2.80;94403.00;;;;5047965;28;20213;-78
2022/11/23 01:06:34;;;;;;;0.10;0.10;;;4.50;99.90;2.50;94407.00;;;;5031974;28;20205;-77
2022/11/23 01:09:14;;;;;;;0.10;0.10;;;4.50;99.90;2.80;94367.00;;;;5031455;28;20210;-77
2022/11/23 01:11:43;;;;;;;0.10;0.10;;;4.50;99.90;2.80;94366.00;;;;5047319;28;20207;-77
2022/11/23 01:14:11;;;;;;;0.10;0.10;;;4.50;99.90;2.80;94486.00;;;;5031930;28;20242;-77
2022/11/23 01:16:42;;;;;;;0.10;0.10;;;4.50;99.90;2.70;94453.00;;;;5031893;28;20742;-77
2022/11/23 01:19:14;;;;;;;0.10;0.10;;;4.50;99.90;2.70;94374.00;;;;5046946;28;20566;-77
2022/11/23 01:21:42;;;;;;;0.10;0.10;;;4.50;99.90;2.70;94437.00;;;;5031905;28;20257;-77
2022/11/23 01:24:16;;;;;;;0.03;0.03;;;4.40;99.90;2.60;94356.00;;;;5030415;28;20222;-77
2022/11/23 01:26:45;;;;;;;0.10;0.10;;;4.40;99.90;2.70;94444.00;;;;5046969;28;20199;-77
2022/11/23 01:29:13;;;;;;;0.10;0.10;;;4.40;99.90;2.70;94344.00;;;;5031453;28;20261;-77
2022/11/23 01:31:42;;;;;;;0.10;0.10;;;4.40;99.90;2.70;94445.00;;;;5046993;28;20199;-77
2022/11/23 01:34:18;;;;;;;0.10;0.10;;;4.40;99.90;2.70;94310.00;;;;5031110;28;20233;-77
2022/11/23 01:36:46;;;;;;;0.10;0.10;;;4.40;99.90;2.70;94355.00;;;;5031849;28;20201;-77
2022/11/23 01:39:15;;;;;;;0.10;0.10;;;4.50;99.90;2.70;94229.00;;;;5046943;28;20202;-77
2022/11/23 01:41:46;;;;;;;0.10;0.10;;;4.40;99.90;2.70;94350.00;;;;5031685;28;20188;-77
2022/11/23 01:44:38;;;;;;;0.10;0.10;;;4.40;99.90;2.70;94285.00;;;;5046906;28;20223;-78
2022/11/23 01:47:09;;;;;;;0.10;0.10;;;4.40;99.90;2.70;94342.00;;;;5020450;28;20579;-77
2022/11/23 01:49:41;;;;;;;0.10;0.10;;;4.40;99.90;2.60;94296.00;;;;5046928;28;20581;-78
2022/11/23 01:52:15;;;;;;;0.10;0.10;;;4.40;99.90;2.60;94374.00;;;;5031582;28;20195;-77
2022/11/23 01:54:48;;;;;;;0.10;0.10;;;4.40;99.90;2.60;94305.00;;;;5031466;28;20269;-77
2022/11/23 01:57:24;;;;;;;0.10;0.10;;;4.40;99.90;2.70;94500.00;;;;5032401;28;20201;-77
2022/11/23 01:59:55;;;;;;;0.10;0.10;;;4.40;99.90;2.70;94428.00;;;;5050625;28;20245;-77
2022/11/23 02:02:29;;;;;;;0.10;0.10;;;4.50;99.90;3.10;95384.00;;;;5050601;28;20199;-77
2022/11/23 02:05:01;;;;;;;0.10;0.10;;;4.50;99.90;3.10;95361.00;;;;5050506;28;20203;-77
2022/11/23 02:07:32;;;;;;;0.10;0.10;;;4.50;99.90;3.00;95305.00;;;;5050665;28;20611;-77
2022/11/23 02:10:01;;;;;;;0.00;0.00;;;4.50;99.90;3.00;95370.00;;;;5035039;28;20224;-77
2022/11/23 02:12:30;;;;;;;0.10;0.10;;;4.50;99.90;3.00;95355.00;;;;5050360;28;20232;-77
2022/11/23 02:14:58;;;;;;;0.10;0.10;;;4.50;99.90;3.00;95320.00;;;;5035011;28;20237;-77
2022/11/23 02:17:27;;;;;;;0.10;0.10;;;4.50;99.90;3.00;95333.00;;;;5050154;28;20210;-77
2022/11/23 02:20:07;;;;;;;0.10;0.10;;;4.50;99.90;3.00;95362.00;;;;5033809;28;20625;-77
2022/11/23 02:22:49;;;;;;;0.10;0.10;;;4.50;99.90;3.00;95323.00;;;;5050397;28;20240;-77
2022/11/23 02:25:30;;;;;;;0.10;0.10;;;4.50;99.90;3.10;95316.00;;;;5033507;28;20199;-77
2022/11/23 02:28:01;;;;;;;0.10;0.10;;;4.50;99.90;3.10;95385.00;;;;5034760;28;20191;-77
2022/11/23 02:30:31;;;;;;;0.10;0.10;;;4.50;99.90;3.10;95389.00;;;;5050189;28;20257;-77
2022/11/23 02:32:59;;;;;;;0.10;0.10;;;4.50;99.90;3.10;95389.00;;;;5049909;28;20219;-77
2022/11/23 02:35:27;;;;;;;0.10;0.10;;;4.60;99.90;3.20;95454.00;;;;5034602;28;20563;-77
2022/11/23 02:37:55;;;;;;;0.10;0.10;;;4.60;99.90;3.20;95445.00;;;;5050311;28;20207;-77
2022/11/23 02:40:31;;;;;;;0.10;0.10;;;4.60;99.90;3.20;95440.00;;;;5050113;28;20207;-77
2022/11/23 02:43:02;;;;;;;0.10;0.10;;;4.70;99.90;3.20;95402.00;;;;5034813;28;20219;-78
2022/11/23 02:45:38;;;;;;;0.10;0.10;;;4.60;99.90;3.10;95386.00;;;;5036516;28;20428;-77
2022/11/23 02:48:06;;;;;;;0.10;0.10;;;4.60;99.90;3.10;95404.00;;;;5041774;28;20552;-78
2022/11/23 02:50:37;;;;;;;0.10;0.10;;;4.60;99.90;3.10;95375.00;;;;5044769;28;20199;-78
2022/11/23 02:53:08;;;;;;;0.10;0.10;;;4.60;99.90;3.10;95339.00;;;;5059668;28;20585;-78
2022/11/23 02:55:36;;;;;;;0.10;0.10;;;4.60;99.90;3.10;95372.00;;;;5059747;28;20196;-78
2022/11/23 02:58:07;;;;;;;0.10;0.10;;;4.60;99.90;3.20;95459.00;;;;5076411;28;20191;-79
2022/11/23 03:00:36;;;;;;;0.10;0.10;;;4.60;99.90;3.20;95383.00;;;;5075596;28;20206;-78
2022/11/23 03:03:04;;;;;;;0.10;0.10;;;4.60;99.90;3.20;95443.00;;;;5060405;28;20254;-77
2022/11/23 03:05:33;;;;;;;0.10;0.10;;;4.60;99.90;3.20;95417.00;;;;5076245;28;20229;-77
2022/11/23 03:08:05;;;;;;;0.10;0.10;;;4.60;99.90;3.20;95470.00;;;;5076028;28;20183;-77
2022/11/23 03:10:34;;;;;;;0.10;0.10;;;4.60;99.90;3.30;95435.00;;;;5048478;28;20211;-77
2022/11/23 03:13:02;;;;;;;0.10;0.10;;;4.70;99.90;3.30;95479.00;;;;5033784;28;20211;-77
2022/11/23 03:15:36;;;;;;;0.10;0.10;;;4.70;99.90;3.20;95424.00;;;;5033025;28;20198;-77
2022/11/23 03:18:06;;;;;;;0.08;0.08;;;4.70;99.90;3.20;95343.00;;;;5049454;28;20205;-77
2022/11/23 03:20:35;;;;;;;0.10;0.10;;;4.60;99.90;3.30;95396.00;;;;5054138;28;20693;-77
2022/11/23 03:23:04;;;;;;;0.08;0.08;;;4.70;99.90;3.30;95505.00;;;;5049757;28;20215;-77
2022/11/23 03:25:33;;;;;;;0.10;0.10;;;4.70;99.90;3.30;95493.00;;;;5049270;28;20290;-77
2022/11/23 03:28:03;;;;;;;0.00;0.00;;;4.70;99.90;3.30;95511.00;;;;5048429;28;20195;-77
2022/11/23 03:30:33;;;;;;;0.10;0.10;;;4.70;99.90;3.30;95517.00;;;;5031965;28;20207;-77
2022/11/23 03:33:05;;;;;;;0.10;0.10;;;4.70;99.90;3.30;95480.00;;;;5048330;28;20675;-77
2022/11/23 03:35:33;;;;;;;0.10;0.10;;;4.70;99.90;3.30;95474.00;;;;5033173;28;20218;-77
2022/11/23 03:38:19;;;;;;;0.10;0.10;;;4.70;99.90;3.30;95510.00;;;;5048160;28;20195;-77
2022/11/23 03:40:49;;;;;;;0.10;0.10;;;4.70;99.90;3.30;95503.00;;;;5048410;28;20286;-77
2022/11/23 03:43:25;;;;;;;0.10;0.10;;;4.70;99.90;3.30;95505.00;;;;5048164;28;20584;-77
2022/11/23 03:45:53;;;;;;;0.10;0.10;;;4.70;99.90;3.30;95502.00;;;;5048428;28;20222;-77
2022/11/23 03:48:23;;;;;;;0.10;0.10;;;4.70;99.90;3.30;95511.00;;;;5032749;28;20241;-77
2022/11/23 03:50:52;;;;;;;0.10;0.10;;;4.70;99.90;3.30;95488.00;;;;5048368;28;20203;-77
2022/11/23 03:53:20;;;;;;;0.05;0.05;;;4.70;99.90;3.20;95478.00;;;;5047866;28;20226;-77
2022/11/23 03:55:48;;;;;;;0.10;0.10;;;4.70;99.90;3.20;95482.00;;;;5031414;28;20206;-77
2022/11/23 03:58:17;;;;;;;0.10;0.10;;;4.70;99.90;3.30;95495.00;;;;5047835;28;20195;-77
2022/11/23 04:00:46;;;;;;;0.10;0.10;;;4.70;99.90;3.30;95502.00;;;;5048006;28;20219;-77
2022/11/23 04:03:15;;;;;;;0.10;0.10;;;4.80;99.90;3.30;95502.00;;;;5030919;28;20249;-77
2022/11/23 04:06:12;;;;;;;0.10;0.10;;;4.70;99.90;3.20;95496.00;;;;5031191;28;20670;-77
2022/11/23 04:08:58;;;;;;;0.10;0.10;;;4.70;99.90;3.30;95518.00;;;;5030974;28;20209;-77
2022/11/23 04:11:49;;;;;;;0.10;0.10;;;4.70;99.90;3.30;95484.00;;;;5021158;28;20294;-77
2022/11/23 04:14:19;;;;;;;0.10;0.10;;;4.70;99.90;3.30;95492.00;;;;5031122;28;20223;-78
2022/11/23 04:16:48;;;;;;;0.10;0.10;;;4.60;99.90;3.20;95524.00;;;;5031228;28;20203;-77
2022/11/23 04:19:16;;;;;;;0.10;0.10;;;4.60;99.90;3.20;95489.00;;;;5030949;28;20241;-77
2022/11/23 04:21:45;;;;;;;0.10;0.10;;;4.70;99.90;3.00;94905.00;;;;5031090;28;20544;-77
2022/11/23 04:24:14;;;;;;;0.10;0.10;;;4.60;99.90;3.30;95519.00;;;;5030823;28;20670;-77
2022/11/23 04:26:45;;;;;;;0.10;0.10;;;4.60;99.90;3.30;95571.00;;;;5031162;28;20192;-77
2022/11/23 04:29:13;;;;;;;0.10;0.10;;;4.60;99.90;3.20;95546.00;;;;5031789;28;20203;-77
2022/11/23 04:31:46;;;;;;;0.10;0.10;;;4.60;99.90;3.30;95576.00;;;;5030799;28;20199;-77
2022/11/23 04:34:18;;;;;;;0.10;0.10;;;4.60;99.90;2.90;95529.00;;;;5030431;28;20227;-77
2022/11/23 04:36:49;;;;;;;0.10;0.10;;;4.60;99.90;3.20;95528.00;;;;5031104;28;20198;-77
2022/11/23 04:39:20;;;;;;;0.10;0.10;;;4.60;99.90;3.20;95520.00;;;;5030633;28;20223;-77
2022/11/23 04:42:07;;;;;;;0.10;0.10;;;4.60;99.90;3.20;95527.00;;;;5031915;28;20629;-77
2022/11/23 04:44:35;;;;;;;0.10;0.10;;;4.50;99.90;3.20;95507.00;;;;5031969;28;20210;-77
2022/11/23 04:47:05;;;;;;;0.10;0.10;;;4.60;99.90;3.20;95500.00;;;;5030306;28;20245;-77
2022/11/23 04:49:37;;;;;;;0.10;0.10;;;4.50;99.90;3.20;95523.00;;;;5030387;28;20191;-77
2022/11/23 04:52:06;;;;;;;0.00;0.00;;;4.50;99.90;3.20;95480.00;;;;5031009;28;20319;-74
2022/11/23 04:54:41;;;;;;;0.10;0.10;;;4.50;99.90;3.20;95470.00;;;;5030697;28;20226;-74
2022/11/23 04:57:10;;;;;;;0.10;0.10;;;4.60;99.90;3.20;95492.00;;;;5031804;28;20245;-74
2022/11/23 04:59:39;;;;;;;0.10;0.10;;;4.60;99.90;3.30;95550.00;;;;5047178;28;20199;-74
2022/11/23 05:02:07;;;;;;;0.00;0.00;;;4.60;99.90;3.10;95525.00;;;;5031079;28;20249;-74
2022/11/23 05:04:43;;;;;;;0.10;0.10;;;4.60;99.90;3.20;95478.00;;;;5030712;28;20651;-74
2022/11/23 05:07:14;;;;;;;0.10;0.10;;;4.60;99.90;3.20;95479.00;;;;5030632;28;20782;-74
2022/11/23 05:09:45;;;;;;;0.10;0.10;;;4.60;99.90;3.20;95486.00;;;;5031618;28;20198;-74
2022/11/23 05:12:17;;;;;;;0.08;0.08;;;4.60;99.90;3.20;95463.00;;;;5031327;28;20207;-74
2022/11/23 05:14:45;;;;;;;0.10;0.10;;;4.60;99.90;3.30;95485.00;;;;5030685;28;20576;-74
2022/11/23 05:17:18;;;;;;;0.05;0.05;;;4.60;99.90;3.20;95483.00;;;;5030832;28;20576;-75
2022/11/23 05:19:48;;;;;;;0.00;0.00;;;4.60;99.90;3.30;95524.00;;;;5030800;28;20261;-74
2022/11/23 05:22:18;;;;;;;0.10;0.10;;;4.60;99.90;3.20;95485.00;;;;5030534;28;20249;-74
2022/11/23 05:24:46;;;;;;;0.10;0.10;;;4.60;99.90;3.30;95512.00;;;;5030367;28;20219;-74
2022/11/23 05:27:18;;;;;;;0.10;0.10;;;4.60;99.90;3.30;95502.00;;;;5030520;28;20234;-74
2022/11/23 05:29:46;;;;;;;0.00;0.00;;;4.60;99.90;3.30;95508.00;;;;5030664;28;20682;-74
2022/11/23 05:32:15;;;;;;;0.10;0.10;;;4.60;99.90;3.30;95532.00;;;;5031141;28;20710;-74
2022/11/23 05:34:43;;;;;;;0.10;0.10;;;4.60;99.90;3.30;95571.00;;;;5036126;28;20215;-74
2022/11/23 05:37:14;;;;;;;0.10;0.10;;;4.60;99.90;3.30;95550.00;;;;5034703;28;20241;-74
2022/11/23 05:39:52;;;;;;;0.00;0.00;;;4.70;99.90;3.30;95555.00;;;;5034695;28;20290;-74
2022/11/23 05:42:23;;;;;;;0.10;0.10;;;4.60;99.90;3.30;95553.00;;;;5035321;28;20264;-74
2022/11/23 05:44:55;;;;;;;0.10;0.10;;;4.60;99.90;3.20;95492.00;;;;5034915;28;20230;-74
2022/11/23 05:47:32;;;;;;;0.10;0.10;;;4.60;99.90;3.30;95537.00;;;;5034377;28;20223;-74
2022/11/23 05:50:03;;;;;;;0.10;0.10;;;4.60;99.90;3.10;95548.00;;;;5035577;28;20210;-74
2022/11/23 05:52:32;;;;;;;0.10;0.10;;;4.60;99.90;3.30;95535.00;;;;5034429;28;20203;-74
2022/11/23 05:55:02;;;;;;;0.10;0.10;;;4.60;99.90;3.30;95580.00;;;;5034437;28;20623;-74
2022/11/23 05:57:30;;;;;;;0.10;0.10;;;4.60;99.90;3.40;95832.00;;;;5035201;28;20205;-75
2022/11/23 05:59:58;;;;;;;0.10;0.10;;;4.60;99.90;3.10;95231.00;;;;5034392;28;20191;-74
2022/11/23 06:02:39;;;;;;;0.10;0.10;;;4.60;99.90;3.10;95124.00;;;;5036576;28;20205;-74
2022/11/23 06:05:09;;;;;;;0.10;0.10;;;4.60;99.90;3.20;95320.00;;;;5034469;28;20199;-74
2022/11/23 06:07:46;;;;;;;0.10;0.10;;;4.60;99.90;3.20;95276.00;;;;5034324;28;20202;-75
2022/11/23 06:10:16;;;;;;;0.10;0.10;;;4.60;99.90;3.10;95160.00;;;;5036367;28;20191;-74
2022/11/23 06:12:48;;;;;;;0.10;0.10;;;4.70;99.90;3.20;95198.00;;;;5034057;28;20325;-74
2022/11/23 06:15:18;;;;;;;0.10;0.10;;;4.70;99.90;3.20;95175.00;;;;5033987;28;20671;-75
2022/11/23 06:17:48;;;;;;;0.00;0.00;;;4.70;99.90;3.10;95155.00;;;;5050941;28;20233;-75
2022/11/23 06:20:20;;;;;;;0.10;0.10;;;4.70;99.90;3.10;95249.00;;;;5036236;28;20839;-74
2022/11/23 06:22:57;;;;;;;0.10;0.10;;;4.60;99.90;3.40;95835.00;;;;5037755;28;20628;-75
2022/11/23 06:25:27;;;;;;;0.10;0.10;;;4.60;99.90;3.30;95424.00;;;;5036644;28;20195;-74
2022/11/23 06:28:05;;;;;;;0.10;0.10;;;4.70;99.90;3.30;95505.00;;;;5033124;28;20286;-74
2022/11/23 06:30:42;;;;;;;0.10;0.10;;;4.70;99.90;3.30;95534.00;;;;5033465;28;20289;-74
2022/11/23 06:33:10;;;;;;;0.10;0.10;;;4.70;99.90;3.30;95489.00;;;;5033164;28;20690;-74
2022/11/23 06:35:53;;;;;;;0.10;0.10;;;4.70;99.90;3.30;95511.00;;;;5033513;28;20230;-74
2022/11/23 06:38:24;;;;;;;0.05;0.05;;;4.70;99.90;3.30;95464.00;;;;5033300;28;20203;-75
2022/11/23 06:41:02;;;;;;;0.10;0.10;;;4.60;99.90;3.30;95494.00;;;;5032812;28;20666;-74
2022/11/23 06:43:31;;;;;;;0.10;0.10;;;4.70;99.90;3.30;95489.00;;;;5033312;28;20300;-74
2022/11/23 06:46:05;;;;;;;0.10;0.10;;;4.70;99.90;3.30;95511.00;;;;5033433;28;20203;-75
2022/11/23 06:48:37;;;;;;;0.10;0.10;;;4.70;99.90;3.30;95525.00;;;;5033413;28;20199;-74
2022/11/23 06:51:07;;;;;;;0.10;0.10;;;4.80;99.90;3.40;95517.00;;;;5034186;28;20191;-75
2022/11/23 06:53:37;;;;;;;0.10;0.10;;;4.80;99.90;3.50;95478.00;;;;5033779;28;20219;-74
2022/11/23 06:56:09;;;;;;;0.10;0.10;;;4.90;99.90;3.50;95520.00;;;;5033370;28;20313;-75
2022/11/23 06:58:38;;;;;;;0.10;0.10;;;4.90;99.90;3.60;95587.00;;;;5032927;28;20302;-75
2022/11/23 07:01:12;;;;;;;0.10;0.10;;;5.00;99.90;3.50;95519.00;;;;5033026;28;20190;-74
2022/11/23 07:03:57;;;;;;;0.10;0.10;;;4.90;99.90;3.50;95562.00;;;;5049922;28;20219;-74
2022/11/23 07:06:29;;;;;;;0.10;0.10;;;4.90;99.90;3.50;95560.00;;;;5034217;28;20218;-74
2022/11/23 07:09:01;;;;;;;0.10;0.10;;;4.90;99.90;3.50;95533.00;;;;5032646;28;20199;-74
2022/11/23 07:12:00;;;;;;;0.08;0.08;;;4.90;99.90;3.50;95571.00;;;;5020678;28;20209;-74
2022/11/23 07:14:28;;;;;;;0.05;0.05;;;4.90;99.90;3.50;95626.00;;;;5033300;28;20215;-74
2022/11/23 07:16:57;;;;;;;0.10;0.10;;;4.90;99.90;3.40;95503.00;;;;5033248;28;20638;-74
2022/11/23 07:19:25;;;;;;;0.10;0.10;;;4.90;99.90;3.40;95493.00;;;;5034548;28;20246;-74
2022/11/23 07:21:57;;;;;;;0.10;0.10;;;4.80;99.90;3.00;93902.00;;;;5034185;28;20237;-74
2022/11/23 07:24:26;;;;;;;0.10;0.10;;;4.80;99.90;3.40;95589.00;;;;5033734;28;20222;-74
2022/11/23 07:26:54;;;;;;;0.10;0.10;;;4.80;99.90;3.40;95518.00;;;;5033105;28;20566;-74
2022/11/23 07:29:23;;;;;;;0.00;0.00;;;4.80;99.90;3.40;95508.00;;;;5031716;28;20198;-74
2022/11/23 07:31:52;;;;;;;0.05;0.05;;;4.80;99.90;3.50;95533.00;;;;5032351;28;20199;-74
2022/11/23 07:34:24;;;;;;;0.10;0.10;;;4.90;99.90;3.50;95590.00;;;;5032392;28;20215;-74
2022/11/23 07:36:53;;;;;;;0.05;0.05;;;4.90;99.90;3.50;95574.00;;;;5035152;28;20222;-74
2022/11/23 07:39:27;;;;;;;0.10;0.10;;;4.90;99.90;3.60;95569.00;;;;5034002;28;20198;-74
2022/11/23 07:42:16;;;;;;;0.10;0.10;;;4.90;99.90;3.60;95570.00;;;;5034320;28;20670;-74
2022/11/23 07:45:04;;;;;;;0.10;0.10;;;5.00;99.90;3.60;95548.00;;;;5036623;28;20191;-74
2022/11/23 07:47:33;;;;;;;0.10;0.10;;;5.00;99.90;3.60;95580.00;;;;5034076;28;20594;-74
2022/11/23 07:50:01;;;;;;;0.10;0.10;;;5.00;99.90;3.60;95559.00;;;;5033845;28;20202;-74
2022/11/23 07:52:29;;;;;;;0.10;0.10;;;5.00;99.90;3.70;95518.00;;;;5034163;28;20779;-73
2022/11/23 07:54:59;;;;;;;0.10;0.10;;;5.00;99.90;3.70;95537.00;;;;5032617;28;20588;-75
2022/11/23 07:57:27;;;;;;;0.10;0.10;;;5.00;99.90;3.80;95526.00;;;;5032601;28;20766;-74
2022/11/23 07:59:55;;;;;;;0.10;0.10;;;5.10;99.90;3.90;95653.00;;;;5032916;28;20191;-74
2022/11/23 08:02:25;;;;;;;0.10;0.10;;;5.20;99.90;3.90;95648.00;;;;5032910;28;20202;-74
2022/11/23 08:04:54;;;;;;;0.10;0.10;;;5.20;99.90;4.00;95680.00;;;;5032879;28;20195;-74
2022/11/23 08:07:22;;;;;;;0.10;0.10;;;5.20;99.90;3.90;95629.00;;;;5032884;28;20553;-76
2022/11/23 08:09:50;;;;;;;0.10;0.10;;;5.20;99.90;4.00;95642.00;;;;5032468;28;20202;-74
2022/11/23 08:12:18;;;;;;;0.10;0.10;;;5.30;99.90;4.10;95616.00;;;;5032547;28;20266;-73
2022/11/23 08:14:46;;;;;;;0.10;0.10;;;5.40;99.90;4.20;95617.00;;;;5032505;28;20568;-73
2022/11/23 08:17:14;;;;;;;0.10;0.10;;;5.40;99.90;4.10;95620.00;;;;5032264;28;20219;-74
2022/11/23 08:19:44;;;;;;;0.10;0.10;;;5.40;99.90;4.20;95625.00;;;;5032405;28;20214;-74
2022/11/23 08:22:12;;;;;;;0.10;0.10;;;5.40;99.90;4.20;95660.00;;;;5032324;28;20249;-74
2022/11/23 08:24:43;;;;;;;0.10;0.10;;;5.50;99.90;4.30;95649.00;;;;5032294;28;20199;-74
2022/11/23 08:27:11;;;;;;;0.10;0.10;;;5.50;99.90;4.20;95641.00;;;;5032298;28;20194;-74
2022/11/23 08:29:39;;;;;;;0.00;0.00;;;5.50;99.90;4.30;95650.00;;;;5031996;28;20195;-73
2022/11/23 08:32:07;;;;;;;0.00;0.00;;;5.50;99.90;4.30;95649.00;;;;5032269;28;20195;-73
2022/11/23 08:34:36;;;;;;;0.10;0.10;;;5.50;99.90;4.30;95652.00;;;;5032212;28;20233;-74
2022/11/23 08:37:05;;;;;;;0.10;0.10;;;5.60;99.90;4.30;95623.00;;;;5032004;28;20264;-73
2022/11/23 08:39:33;;;;;;;0.10;0.10;;;5.60;99.90;4.30;95650.00;;;;5031859;28;20187;-73
2022/11/23 08:42:02;;;;;;;0.10;0.10;;;5.60;99.90;4.30;95561.00;;;;5032080;28;20191;-73
2022/11/23 08:44:30;;;;;;;0.10;0.10;;;5.60;99.90;4.30;95632.00;;;;5032120;28;20210;-74
2022/11/23 08:46:58;;;;;;;0.10;0.10;;;5.50;99.90;4.30;95651.00;;;;5031996;28;20194;-75
2022/11/23 08:49:27;;;;;;;0.10;0.10;;;5.50;99.90;4.30;95641.00;;;;5031728;28;20249;-75
2022/11/23 08:51:55;;;;;;;0.10;0.10;;;5.60;99.90;4.30;95635.00;;;;5032131;28;20249;-74
2022/11/23 08:54:24;;;;;;;0.10;0.10;;;5.50;99.90;4.40;95696.00;;;;5032264;28;20211;-75
2022/11/23 08:56:53;;;;;;;0.10;0.10;;;5.60;99.90;3.90;94311.00;;;;5032326;28;20702;-73
2022/11/23 08:59:21;;;;;;;0.10;0.10;;;5.60;99.90;4.00;94541.00;;;;5031588;28;20195;-74
2022/11/23 09:01:49;;;;;;;0.10;0.10;;;5.60;99.90;4.00;94677.00;;;;5031773;28;20241;-75
2022/11/23 09:04:17;;;;;;;0.10;0.10;;;5.70;99.90;4.00;94496.00;;;;5031688;28;20214;-73
2022/11/23 09:06:48;;;;;;;0.10;0.10;;;5.70;99.90;4.00;94546.00;;;;5031534;28;20230;-73
2022/11/23 09:09:16;;;;;;;0.05;0.05;;;5.70;99.90;4.10;94434.00;;;;5031826;28;20655;-74
2022/11/23 09:11:45;;;;;;;0.10;0.10;;;5.70;99.90;4.10;94309.00;;;;5031902;28;20569;-72
2022/11/23 09:14:13;;;;;;;0.10;0.10;;;5.80;99.90;4.10;94364.00;;;;5032320;28;20212;-73
2022/11/23 09:16:42;;;;;;;0.10;0.10;;;5.80;99.90;4.10;94162.00;;;;5030807;28;20222;-74
2022/11/23 09:19:13;;;;;;;0.10;0.10;;;5.80;99.90;4.20;94045.00;;;;5031949;28;20195;-75
2022/11/23 09:21:42;;;;;;;0.10;0.10;;;5.90;99.90;4.40;93874.00;;;;5033012;28;20191;-74
2022/11/23 09:24:11;;;;;;;0.10;0.10;;;6.00;99.90;4.40;93871.00;;;;5031712;28;20238;-75
2022/11/23 09:26:40;;;;;;;0.10;0.10;;;6.10;99.90;4.50;93972.00;;;;5031793;28;20198;-73
2022/11/23 09:29:10;;;;;;;0.03;0.03;;;6.10;99.90;4.70;93972.00;;;;5031844;28;20203;-73
2022/11/23 09:31:38;;;;;;;0.10;0.10;;;6.20;99.90;4.80;94026.00;;;;5032185;28;20253;-72
2022/11/23 09:34:06;;;;;;;0.05;0.05;;;6.40;99.90;4.80;94068.00;;;;5032255;28;20258;-73
2022/11/23 09:36:34;;;;;;;0.10;0.10;;;6.40;99.90;4.90;93994.00;;;;5031752;28;20667;-74
2022/11/23 09:39:03;;;;;;;0.10;0.10;;;6.50;99.90;4.90;94065.00;;;;5031822;28;20565;-73
2022/11/23 09:42:13;;;;;;;0.10;0.10;;;6.50;99.90;5.00;93955.00;;;;5032313;28;20187;-74
2022/11/23 09:45:08;;;;;;;0.10;0.10;;;6.60;99.90;5.10;94253.00;;;;5029189;28;20227;-73
2022/11/23 09:47:59;;;;;;;0.10;0.10;;;6.60;99.90;5.00;94066.00;;;;5031353;28;20244;-74
2022/11/23 09:50:35;;;;;;;0.10;0.10;;;6.70;99.90;5.10;93942.00;;;;5031683;28;20235;-74
2022/11/23 09:53:12;;;;;;;0.10;0.10;;;6.60;99.90;5.10;94056.00;;;;5031797;28;20214;-74
2022/11/23 09:55:44;;;;;;;0.10;0.10;;;6.70;99.90;5.20;94004.00;;;;5031801;28;20198;-74
2022/11/23 09:58:17;;;;;;;0.10;0.10;;;6.70;99.90;5.10;94546.00;;;;5033034;28;20218;-73
2022/11/23 10:00:52;;;;;;;0.10;0.10;;;6.70;99.90;5.10;94525.00;;;;5045361;28;20257;-73
2022/11/23 10:03:20;;;;;;;0.10;0.10;;;6.70;99.90;5.20;94453.00;;;;5042926;28;20214;-74
2022/11/23 10:06:02;;;;;;;0.10;0.10;;;6.70;99.90;5.20;94264.00;;;;5038116;28;20195;-76
2022/11/23 10:08:44;;;;;;;0.10;0.10;;;6.80;99.90;5.20;94238.00;;;;5035423;28;20199;-77
2022/11/23 10:11:38;;;;;;;0.10;0.10;;;6.80;99.90;5.20;94241.00;;;;5036530;28;20195;-76
2022/11/23 10:14:28;;;;;;;0.10;0.10;;;6.80;99.90;5.30;94222.00;;;;5036203;28;20215;-77
2022/11/23 10:17:19;;;;;;;0.10;0.10;;;6.90;99.90;5.40;94241.00;;;;5035932;28;20302;-76
2022/11/23 10:20:15;;;;;;;0.10;0.10;;;7.00;99.90;5.50;94234.00;;;;5036326;28;20195;-76
2022/11/23 10:22:56;;;;;;;0.10;0.10;;;7.10;99.90;5.60;94057.00;;;;5034434;28;20211;-76
2022/11/23 10:25:27;;;;;;;0.10;0.10;;;7.20;99.90;5.70;94268.00;;;;5034630;28;20244;-76
2022/11/23 10:28:02;;;;;;;0.10;0.10;;;7.30;99.90;5.70;94059.00;;;;5034359;28;20199;-76
2022/11/23 10:30:30;;;;;;;0.10;0.10;;;7.30;99.90;5.70;94196.00;;;;5034535;28;20662;-73
2022/11/23 10:33:13;;;;;;;0.10;0.10;;;7.30;99.90;5.50;94188.00;;;;5034355;28;20280;-74
2022/11/23 10:35:41;;;;;;;0.10;0.10;;;7.20;99.90;5.60;94744.00;;;;5034842;28;20257;-74
2022/11/23 10:38:11;;;;;;;0.10;0.10;;;7.10;99.90;5.10;94043.00;;;;5034454;28;20245;-74
2022/11/23 10:41:02;;;;;;;0.10;0.10;;;7.20;99.90;5.50;93944.00;;;;5035293;28;20274;-74
2022/11/23 10:43:38;;;;;;;0.10;0.10;;;7.10;99.90;5.60;93897.00;;;;5035234;28;20598;-74
2022/11/23 10:46:28;;;;;;;0.10;0.10;;;7.20;99.90;5.70;93930.00;;;;5035072;28;20629;-74
2022/11/23 10:49:15;;;;;;;0.10;0.10;;;7.30;99.90;5.70;93869.00;;;;5034160;28;20200;-74
2022/11/23 10:51:52;;;;;;;0.10;0.10;;;7.20;99.90;5.60;93957.00;;;;5035970;28;20206;-74
2022/11/23 10:54:29;;;;;;;0.10;0.10;;;7.20;99.90;5.80;93914.00;;;;5035257;28;20249;-75
2022/11/23 10:57:00;;;;;;;0.10;0.10;;;7.30;99.90;5.70;94044.00;;;;5038819;28;20237;-74
2022/11/23 10:59:33;;;;;;;0.08;0.08;;;7.30;99.90;5.70;94053.00;;;;5037677;28;20257;-75
2022/11/23 11:02:24;;;;;;;0.00;0.00;;;7.30;99.90;5.70;94059.00;;;;5035842;28;20195;-73
2022/11/23 11:05:22;;;;;;;0.10;0.10;;;7.30;99.90;5.80;94068.00;;;;5032669;28;20254;-74
2022/11/23 11:08:16;;;;;;;0.10;0.10;;;7.40;99.90;5.80;94109.00;;;;5034147;28;20198;-74
2022/11/23 11:10:49;;;;;;;0.10;0.10;;;7.40;99.90;5.70;93937.00;;;;5034673;28;20546;-74
2022/11/23 11:13:28;;;;;;;0.00;0.00;;;7.30;99.90;5.70;93897.00;;;;5034153;28;20219;-74
2022/11/23 11:16:00;;;;;;;0.10;0.10;;;7.30;99.90;5.80;93942.00;;;;5034018;28;20253;-74
2022/11/23 11:18:33;;;;;;;0.10;0.10;;;7.40;99.90;5.90;93932.00;;;;5034341;28;20599;-74
2022/11/23 11:21:06;;;;;;;0.08;0.08;;;7.50;99.90;6.10;93981.00;;;;5033936;28;20191;-74
2022/11/23 11:23:38;;;;;;;0.10;0.10;;;7.70;99.90;6.20;93978.00;;;;5034008;28;20207;-74
2022/11/23 11:26:18;;;;;;;0.03;0.03;;;7.80;99.90;6.30;94009.00;;;;5034022;28;20210;-74
2022/11/23 11:28:51;;;;;;;0.10;0.10;;;7.90;99.90;6.40;94056.00;;;;5033627;28;20622;-74
2022/11/23 11:31:44;;;;;;;0.10;0.10;;;7.90;99.90;6.50;94020.00;;;;5031771;28;20207;-74
2022/11/23 11:34:25;;;;;;;0.10;0.10;;;8.00;99.90;6.60;94044.00;;;;5034263;28;20214;-74